sensor_id;sensor_type;location;lat;lon;timestamp;P1;durP1;ratioP1;P2;durP2;ratioP2
16804;SDS011;8520;50.102;20.010;2022-09-27T00:02:31;66.87;;;62.60;;
16804;SDS011;8520;50.102;20.010;2022-09-27T00:05:19;66.00;;;61.23;;
16804;SDS011;8520;50.102;20.010;2022-09-27T00:08:09;62.73;;;58.93;;
16804;SDS011;8520;50.102;20.010;2022-09-27T00:13:47;62.93;;;58.73;;
16804;SDS011;8520;50.102;20.010;2022-09-27T00:16:37;60.87;;;57.20;;
16804;SDS011;8520;50.102;20.010;2022-09-27T00:19:26;64.70;;;58.60;;
16804;SDS011;8520;50.102;20.010;2022-09-27T00:22:14;56.00;;;52.80;;
16804;SDS011;8520;50.102;20.010;2022-09-27T00:25:04;66.10;;;56.67;;
16804;SDS011;8520;50.102;20.010;2022-09-27T00:27:53;60.33;;;54.83;;
16804;SDS011;8520;50.102;20.010;2022-09-27T00:30:42;100.37;;;57.37;;
16804;SDS011;8520;50.102;20.010;2022-09-27T00:33:30;224.37;;;65.87;;
16804;SDS011;8520;50.102;20.010;2022-09-27T00:36:19;139.20;;;58.97;;
16804;SDS011;8520;50.102;20.010;2022-09-27T00:39:09;145.77;;;59.37;;
16804;SDS011;8520;50.102;20.010;2022-09-27T00:41:59;84.17;;;55.10;;
16804;SDS011;8520;50.102;20.010;2022-09-27T00:44:59;125.17;;;58.83;;
16804;SDS011;8520;50.102;20.010;2022-09-27T00:47:59;77.30;;;58.23;;
16804;SDS011;8520;50.102;20.010;2022-09-27T00:50:50;86.43;;;59.60;;
16804;SDS011;8520;50.102;20.010;2022-09-27T00:53:46;86.53;;;61.03;;
16804;SDS011;8520;50.102;20.010;2022-09-27T00:56:37;363.63;;;80.03;;
16804;SDS011;8520;50.102;20.010;2022-09-27T00:59:29;139.83;;;64.83;;
16804;SDS011;8520;50.102;20.010;2022-09-27T01:02:22;62.93;;;57.13;;
16804;SDS011;8520;50.102;20.010;2022-09-27T01:05:11;63.37;;;57.93;;
16804;SDS011;8520;50.102;20.010;2022-09-27T01:08:02;64.77;;;59.70;;
16804;SDS011;8520;50.102;20.010;2022-09-27T01:10:52;68.83;;;63.17;;
16804;SDS011;8520;50.102;20.010;2022-09-27T01:13:56;71.97;;;67.20;;
16804;SDS011;8520;50.102;20.010;2022-09-27T01:16:59;80.37;;;72.17;;
16804;SDS011;8520;50.102;20.010;2022-09-27T01:20:12;68.83;;;64.57;;
16804;SDS011;8520;50.102;20.010;2022-09-27T01:23:27;70.70;;;66.13;;
16804;SDS011;8520;50.102;20.010;2022-09-27T01:26:43;71.03;;;65.20;;
16804;SDS011;8520;50.102;20.010;2022-09-27T01:29:53;69.47;;;63.67;;
16804;SDS011;8520;50.102;20.010;2022-09-27T01:33:08;66.03;;;62.13;;
16804;SDS011;8520;50.102;20.010;2022-09-27T01:36:04;65.43;;;61.23;;
16804;SDS011;8520;50.102;20.010;2022-09-27T01:39:05;68.37;;;64.23;;
16804;SDS011;8520;50.102;20.010;2022-09-27T01:42:38;67.23;;;63.47;;
16804;SDS011;8520;50.102;20.010;2022-09-27T01:45:37;69.97;;;65.97;;
16804;SDS011;8520;50.102;20.010;2022-09-27T01:48:40;72.43;;;68.23;;
16804;SDS011;8520;50.102;20.010;2022-09-27T01:51:39;82.03;;;75.93;;
16804;SDS011;8520;50.102;20.010;2022-09-27T01:54:34;126.03;;;72.90;;
16804;SDS011;8520;50.102;20.010;2022-09-27T01:57:42;77.17;;;69.23;;
16804;SDS011;8520;50.102;20.010;2022-09-27T02:00:43;69.77;;;65.00;;
16804;SDS011;8520;50.102;20.010;2022-09-27T02:03:40;67.40;;;63.13;;
16804;SDS011;8520;50.102;20.010;2022-09-27T02:06:57;65.70;;;62.00;;
16804;SDS011;8520;50.102;20.010;2022-09-27T02:09:51;65.23;;;61.40;;
16804;SDS011;8520;50.102;20.010;2022-09-27T02:12:51;62.67;;;58.87;;
16804;SDS011;8520;50.102;20.010;2022-09-27T02:15:46;64.53;;;60.00;;
16804;SDS011;8520;50.102;20.010;2022-09-27T02:18:58;64.97;;;61.23;;
16804;SDS011;8520;50.102;20.010;2022-09-27T02:21:58;67.67;;;63.57;;
16804;SDS011;8520;50.102;20.010;2022-09-27T02:24:55;71.50;;;67.20;;
16804;SDS011;8520;50.102;20.010;2022-09-27T02:27:51;69.87;;;65.63;;
16804;SDS011;8520;50.102;20.010;2022-09-27T02:30:52;69.27;;;64.67;;
16804;SDS011;8520;50.102;20.010;2022-09-27T02:33:45;63.60;;;59.90;;
16804;SDS011;8520;50.102;20.010;2022-09-27T02:36:37;63.17;;;58.43;;
16804;SDS011;8520;50.102;20.010;2022-09-27T02:39:26;60.73;;;56.60;;
16804;SDS011;8520;50.102;20.010;2022-09-27T02:42:22;61.00;;;56.73;;
16804;SDS011;8520;50.102;20.010;2022-09-27T02:45:11;94.67;;;56.43;;
16804;SDS011;8520;50.102;20.010;2022-09-27T02:48:06;422.67;;;73.63;;
16804;SDS011;8520;50.102;20.010;2022-09-27T02:51:11;50.93;;;48.23;;
16804;SDS011;8520;50.102;20.010;2022-09-27T02:54:11;52.83;;;49.57;;
16804;SDS011;8520;50.102;20.010;2022-09-27T02:57:27;53.57;;;50.57;;
16804;SDS011;8520;50.102;20.010;2022-09-27T03:00:32;55.23;;;51.77;;
16804;SDS011;8520;50.102;20.010;2022-09-27T03:03:48;125.37;;;58.53;;
16804;SDS011;8520;50.102;20.010;2022-09-27T03:06:40;55.83;;;51.63;;
16804;SDS011;8520;50.102;20.010;2022-09-27T03:09:39;79.13;;;52.70;;
16804;SDS011;8520;50.102;20.010;2022-09-27T03:12:30;54.43;;;51.10;;
16804;SDS011;8520;50.102;20.010;2022-09-27T03:15:19;58.27;;;52.80;;
16804;SDS011;8520;50.102;20.010;2022-09-27T03:18:19;147.27;;;61.30;;
16804;SDS011;8520;50.102;20.010;2022-09-27T03:21:44;60.13;;;54.57;;
16804;SDS011;8520;50.102;20.010;2022-09-27T03:24:32;73.07;;;55.17;;
16804;SDS011;8520;50.102;20.010;2022-09-27T03:27:21;60.07;;;53.87;;
16804;SDS011;8520;50.102;20.010;2022-09-27T03:30:11;270.27;;;74.80;;
16804;SDS011;8520;50.102;20.010;2022-09-27T03:33:00;123.10;;;55.33;;
16804;SDS011;8520;50.102;20.010;2022-09-27T03:36:03;54.13;;;50.67;;
16804;SDS011;8520;50.102;20.010;2022-09-27T03:38:54;66.93;;;53.83;;
16804;SDS011;8520;50.102;20.010;2022-09-27T03:41:42;54.57;;;50.23;;
16804;SDS011;8520;50.102;20.010;2022-09-27T03:44:30;52.33;;;49.33;;
16804;SDS011;8520;50.102;20.010;2022-09-27T03:47:19;55.33;;;49.37;;
16804;SDS011;8520;50.102;20.010;2022-09-27T03:50:08;103.83;;;47.83;;
16804;SDS011;8520;50.102;20.010;2022-09-27T03:52:58;48.10;;;44.97;;
16804;SDS011;8520;50.102;20.010;2022-09-27T03:55:48;49.37;;;46.53;;
16804;SDS011;8520;50.102;20.010;2022-09-27T03:58:37;74.37;;;52.10;;
16804;SDS011;8520;50.102;20.010;2022-09-27T04:01:25;52.33;;;49.03;;
16804;SDS011;8520;50.102;20.010;2022-09-27T04:04:24;162.60;;;61.67;;
16804;SDS011;8520;50.102;20.010;2022-09-27T04:07:12;240.63;;;64.37;;
16804;SDS011;8520;50.102;20.010;2022-09-27T04:10:02;55.90;;;52.43;;
16804;SDS011;8520;50.102;20.010;2022-09-27T04:12:54;56.90;;;53.40;;
16804;SDS011;8520;50.102;20.010;2022-09-27T04:15:45;210.03;;;66.03;;
16804;SDS011;8520;50.102;20.010;2022-09-27T04:18:56;298.63;;;68.37;;
16804;SDS011;8520;50.102;20.010;2022-09-27T04:21:51;166.60;;;125.73;;
16804;SDS011;8520;50.102;20.010;2022-09-27T04:24:40;245.90;;;106.03;;
16804;SDS011;8520;50.102;20.010;2022-09-27T04:27:43;70.33;;;65.20;;
16804;SDS011;8520;50.102;20.010;2022-09-27T04:30:34;61.07;;;57.40;;
16804;SDS011;8520;50.102;20.010;2022-09-27T04:33:31;422.07;;;87.87;;
16804;SDS011;8520;50.102;20.010;2022-09-27T04:36:37;414.47;;;90.63;;
16804;SDS011;8520;50.102;20.010;2022-09-27T04:39:31;262.87;;;73.63;;
16804;SDS011;8520;50.102;20.010;2022-09-27T04:42:22;350.70;;;74.90;;
16804;SDS011;8520;50.102;20.010;2022-09-27T04:45:14;102.00;;;57.63;;
16804;SDS011;8520;50.102;20.010;2022-09-27T04:48:04;59.30;;;54.67;;
16804;SDS011;8520;50.102;20.010;2022-09-27T04:50:56;128.20;;;60.97;;
16804;SDS011;8520;50.102;20.010;2022-09-27T04:53:45;57.00;;;52.43;;
16804;SDS011;8520;50.102;20.010;2022-09-27T04:56:33;55.20;;;51.83;;
16804;SDS011;8520;50.102;20.010;2022-09-27T04:59:23;59.07;;;53.50;;
16804;SDS011;8520;50.102;20.010;2022-09-27T05:02:12;59.23;;;55.43;;
16804;SDS011;8520;50.102;20.010;2022-09-27T05:05:19;479.20;;;81.20;;
16804;SDS011;8520;50.102;20.010;2022-09-27T05:08:09;58.13;;;54.10;;
16804;SDS011;8520;50.102;20.010;2022-09-27T05:11:16;62.73;;;55.20;;
16804;SDS011;8520;50.102;20.010;2022-09-27T05:14:23;62.50;;;58.13;;
16804;SDS011;8520;50.102;20.010;2022-09-27T05:17:34;60.37;;;56.37;;
16804;SDS011;8520;50.102;20.010;2022-09-27T05:20:56;66.80;;;59.13;;
16804;SDS011;8520;50.102;20.010;2022-09-27T05:23:54;62.03;;;56.60;;
16804;SDS011;8520;50.102;20.010;2022-09-27T05:26:43;61.40;;;56.60;;
16804;SDS011;8520;50.102;20.010;2022-09-27T05:29:32;63.87;;;57.17;;
16804;SDS011;8520;50.102;20.010;2022-09-27T05:32:27;162.40;;;60.30;;
16804;SDS011;8520;50.102;20.010;2022-09-27T05:35:36;83.07;;;57.80;;
16804;SDS011;8520;50.102;20.010;2022-09-27T05:38:32;87.23;;;57.77;;
16804;SDS011;8520;50.102;20.010;2022-09-27T05:41:23;68.70;;;58.73;;
16804;SDS011;8520;50.102;20.010;2022-09-27T05:44:12;223.07;;;71.03;;
16804;SDS011;8520;50.102;20.010;2022-09-27T05:47:09;68.93;;;62.83;;
16804;SDS011;8520;50.102;20.010;2022-09-27T05:49:57;83.07;;;62.73;;
16804;SDS011;8520;50.102;20.010;2022-09-27T05:52:46;73.00;;;61.60;;
16804;SDS011;8520;50.102;20.010;2022-09-27T05:55:37;86.70;;;62.40;;
16804;SDS011;8520;50.102;20.010;2022-09-27T05:58:26;105.20;;;57.70;;
16804;SDS011;8520;50.102;20.010;2022-09-27T06:01:28;139.60;;;59.73;;
16804;SDS011;8520;50.102;20.010;2022-09-27T06:04:35;201.47;;;66.10;;
16804;SDS011;8520;50.102;20.010;2022-09-27T06:07:56;128.00;;;61.00;;
16804;SDS011;8520;50.102;20.010;2022-09-27T06:10:58;190.63;;;64.03;;
16804;SDS011;8520;50.102;20.010;2022-09-27T06:13:50;85.20;;;58.87;;
16804;SDS011;8520;50.102;20.010;2022-09-27T06:16:39;406.07;;;80.67;;
16804;SDS011;8520;50.102;20.010;2022-09-27T06:19:27;354.13;;;68.87;;
16804;SDS011;8520;50.102;20.010;2022-09-27T06:22:16;163.97;;;57.23;;
16804;SDS011;8520;50.102;20.010;2022-09-27T06:25:14;56.60;;;51.07;;
16804;SDS011;8520;50.102;20.010;2022-09-27T06:28:27;81.67;;;51.47;;
16804;SDS011;8520;50.102;20.010;2022-09-27T06:31:16;107.53;;;52.50;;
16804;SDS011;8520;50.102;20.010;2022-09-27T06:34:20;346.20;;;69.43;;
16804;SDS011;8520;50.102;20.010;2022-09-27T06:37:09;56.20;;;45.77;;
16804;SDS011;8520;50.102;20.010;2022-09-27T06:39:58;63.93;;;44.47;;
16804;SDS011;8520;50.102;20.010;2022-09-27T06:43:07;50.27;;;44.60;;
16804;SDS011;8520;50.102;20.010;2022-09-27T06:46:18;53.03;;;45.90;;
16804;SDS011;8520;50.102;20.010;2022-09-27T06:49:17;91.80;;;46.90;;
16804;SDS011;8520;50.102;20.010;2022-09-27T06:52:07;143.63;;;46.00;;
16804;SDS011;8520;50.102;20.010;2022-09-27T06:54:56;45.63;;;41.57;;
16804;SDS011;8520;50.102;20.010;2022-09-27T06:57:44;46.30;;;42.40;;
16804;SDS011;8520;50.102;20.010;2022-09-27T07:00:51;46.50;;;42.87;;
16804;SDS011;8520;50.102;20.010;2022-09-27T07:04:04;62.77;;;42.93;;
16804;SDS011;8520;50.102;20.010;2022-09-27T07:07:11;51.43;;;47.30;;
16804;SDS011;8520;50.102;20.010;2022-09-27T07:10:04;46.20;;;42.27;;
16804;SDS011;8520;50.102;20.010;2022-09-27T07:12:56;564.47;;;83.23;;
16804;SDS011;8520;50.102;20.010;2022-09-27T07:15:52;53.00;;;39.13;;
16804;SDS011;8520;50.102;20.010;2022-09-27T07:18:40;41.90;;;38.50;;
16804;SDS011;8520;50.102;20.010;2022-09-27T07:21:30;63.10;;;57.30;;
16804;SDS011;8520;50.102;20.010;2022-09-27T07:24:19;651.87;;;230.20;;
16804;SDS011;8520;50.102;20.010;2022-09-27T07:27:08;163.03;;;100.10;;
16804;SDS011;8520;50.102;20.010;2022-09-27T07:29:56;87.10;;;78.53;;
16804;SDS011;8520;50.102;20.010;2022-09-27T07:32:45;39.90;;;37.30;;
16804;SDS011;8520;50.102;20.010;2022-09-27T07:35:33;36.30;;;34.00;;
16804;SDS011;8520;50.102;20.010;2022-09-27T07:38:27;34.93;;;32.73;;
16804;SDS011;8520;50.102;20.010;2022-09-27T07:41:15;34.07;;;31.87;;
16804;SDS011;8520;50.102;20.010;2022-09-27T07:44:04;34.60;;;32.27;;
16804;SDS011;8520;50.102;20.010;2022-09-27T07:47:01;34.93;;;32.63;;
16804;SDS011;8520;50.102;20.010;2022-09-27T07:50:09;34.07;;;31.87;;
16804;SDS011;8520;50.102;20.010;2022-09-27T07:53:08;33.63;;;31.30;;
16804;SDS011;8520;50.102;20.010;2022-09-27T07:56:15;32.80;;;30.70;;
16804;SDS011;8520;50.102;20.010;2022-09-27T07:59:03;31.10;;;29.30;;
16804;SDS011;8520;50.102;20.010;2022-09-27T08:01:53;30.73;;;28.70;;
16804;SDS011;8520;50.102;20.010;2022-09-27T08:04:42;31.17;;;29.17;;
16804;SDS011;8520;50.102;20.010;2022-09-27T08:07:32;29.43;;;27.57;;
16804;SDS011;8520;50.102;20.010;2022-09-27T08:10:21;30.20;;;28.40;;
16804;SDS011;8520;50.102;20.010;2022-09-27T08:13:12;29.17;;;27.27;;
16804;SDS011;8520;50.102;20.010;2022-09-27T08:16:07;30.40;;;28.40;;
16804;SDS011;8520;50.102;20.010;2022-09-27T08:19:15;29.20;;;27.13;;
16804;SDS011;8520;50.102;20.010;2022-09-27T08:22:20;28.03;;;26.10;;
16804;SDS011;8520;50.102;20.010;2022-09-27T08:25:15;28.60;;;26.70;;
16804;SDS011;8520;50.102;20.010;2022-09-27T08:28:23;28.30;;;26.43;;
16804;SDS011;8520;50.102;20.010;2022-09-27T08:31:37;28.07;;;25.97;;
16804;SDS011;8520;50.102;20.010;2022-09-27T08:34:26;24.87;;;23.10;;
16804;SDS011;8520;50.102;20.010;2022-09-27T08:37:15;26.27;;;24.33;;
16804;SDS011;8520;50.102;20.010;2022-09-27T08:40:04;29.30;;;26.77;;
16804;SDS011;8520;50.102;20.010;2022-09-27T08:42:58;30.60;;;27.77;;
16804;SDS011;8520;50.102;20.010;2022-09-27T08:45:59;26.92;;;25.00;;
16804;SDS011;8520;50.102;20.010;2022-09-27T08:48:56;25.07;;;22.93;;
16804;SDS011;8520;50.102;20.010;2022-09-27T08:51:51;23.37;;;21.77;;
16804;SDS011;8520;50.102;20.010;2022-09-27T08:54:41;23.40;;;21.55;;
16804;SDS011;8520;50.102;20.010;2022-09-27T08:57:31;22.45;;;20.92;;
16804;SDS011;8520;50.102;20.010;2022-09-27T09:00:19;23.13;;;21.42;;
16804;SDS011;8520;50.102;20.010;2022-09-27T09:03:15;23.33;;;21.52;;
16804;SDS011;8520;50.102;20.010;2022-09-27T09:06:08;23.73;;;22.13;;
16804;SDS011;8520;50.102;20.010;2022-09-27T09:09:07;24.75;;;22.67;;
16804;SDS011;8520;50.102;20.010;2022-09-27T09:12:19;23.83;;;21.88;;
16804;SDS011;8520;50.102;20.010;2022-09-27T09:15:38;26.85;;;24.85;;
16804;SDS011;8520;50.102;20.010;2022-09-27T09:18:51;26.27;;;24.15;;
16804;SDS011;8520;50.102;20.010;2022-09-27T09:22:05;22.50;;;21.00;;
16804;SDS011;8520;50.102;20.010;2022-09-27T09:25:17;23.77;;;21.73;;
16804;SDS011;8520;50.102;20.010;2022-09-27T09:28:16;21.73;;;20.23;;
16804;SDS011;8520;50.102;20.010;2022-09-27T09:31:18;21.13;;;19.65;;
16804;SDS011;8520;50.102;20.010;2022-09-27T09:34:17;19.05;;;17.85;;
16804;SDS011;8520;50.102;20.010;2022-09-27T09:37:10;19.10;;;17.77;;
16804;SDS011;8520;50.102;20.010;2022-09-27T09:40:04;20.85;;;19.15;;
16804;SDS011;8520;50.102;20.010;2022-09-27T09:43:01;19.52;;;18.20;;
16804;SDS011;8520;50.102;20.010;2022-09-27T09:45:57;19.77;;;18.50;;
16804;SDS011;8520;50.102;20.010;2022-09-27T09:48:50;19.60;;;18.30;;
16804;SDS011;8520;50.102;20.010;2022-09-27T09:51:48;19.52;;;18.33;;
16804;SDS011;8520;50.102;20.010;2022-09-27T09:54:43;19.00;;;17.13;;
16804;SDS011;8520;50.102;20.010;2022-09-27T09:57:37;17.67;;;16.45;;
16804;SDS011;8520;50.102;20.010;2022-09-27T10:00:38;19.58;;;18.05;;
16804;SDS011;8520;50.102;20.010;2022-09-27T10:03:28;20.55;;;19.10;;
16804;SDS011;8520;50.102;20.010;2022-09-27T10:06:17;22.85;;;21.05;;
16804;SDS011;8520;50.102;20.010;2022-09-27T10:09:08;24.25;;;21.52;;
16804;SDS011;8520;50.102;20.010;2022-09-27T10:12:04;19.67;;;18.38;;
16804;SDS011;8520;50.102;20.010;2022-09-27T10:14:54;18.45;;;17.13;;
16804;SDS011;8520;50.102;20.010;2022-09-27T10:17:47;18.77;;;17.40;;
16804;SDS011;8520;50.102;20.010;2022-09-27T10:20:37;16.50;;;15.50;;
16804;SDS011;8520;50.102;20.010;2022-09-27T10:23:30;16.00;;;14.93;;
16804;SDS011;8520;50.102;20.010;2022-09-27T10:26:23;14.95;;;14.05;;
16804;SDS011;8520;50.102;20.010;2022-09-27T10:32:26;14.90;;;14.00;;
16804;SDS011;8520;50.102;20.010;2022-09-27T10:35:38;13.30;;;12.60;;
16804;SDS011;8520;50.102;20.010;2022-09-27T10:38:34;12.88;;;12.07;;
16804;SDS011;8520;50.102;20.010;2022-09-27T10:41:41;12.82;;;12.05;;
16804;SDS011;8520;50.102;20.010;2022-09-27T10:44:36;12.68;;;11.95;;
16804;SDS011;8520;50.102;20.010;2022-09-27T10:47:38;20.75;;;18.83;;
16804;SDS011;8520;50.102;20.010;2022-09-27T10:50:39;11.90;;;11.20;;
16804;SDS011;8520;50.102;20.010;2022-09-27T10:53:56;11.73;;;11.02;;
16804;SDS011;8520;50.102;20.010;2022-09-27T10:56:59;11.70;;;10.80;;
16804;SDS011;8520;50.102;20.010;2022-09-27T10:59:51;10.55;;;9.85;;
16804;SDS011;8520;50.102;20.010;2022-09-27T11:02:42;10.00;;;9.40;;
16804;SDS011;8520;50.102;20.010;2022-09-27T11:05:33;10.57;;;9.73;;
16804;SDS011;8520;50.102;20.010;2022-09-27T11:08:28;8.95;;;8.35;;
16804;SDS011;8520;50.102;20.010;2022-09-27T11:11:29;8.75;;;8.25;;
16804;SDS011;8520;50.102;20.010;2022-09-27T11:14:20;9.52;;;8.93;;
16804;SDS011;8520;50.102;20.010;2022-09-27T11:17:12;9.43;;;8.70;;
16804;SDS011;8520;50.102;20.010;2022-09-27T11:20:13;9.45;;;8.82;;
16804;SDS011;8520;50.102;20.010;2022-09-27T11:23:19;9.68;;;8.77;;
16804;SDS011;8520;50.102;20.010;2022-09-27T11:26:26;9.50;;;8.90;;
16804;SDS011;8520;50.102;20.010;2022-09-27T11:29:28;8.82;;;8.32;;
16804;SDS011;8520;50.102;20.010;2022-09-27T11:33:03;8.10;;;7.50;;
16804;SDS011;8520;50.102;20.010;2022-09-27T11:36:08;8.63;;;8.13;;
16804;SDS011;8520;50.102;20.010;2022-09-27T11:39:06;9.20;;;8.48;;
16804;SDS011;8520;50.102;20.010;2022-09-27T11:42:09;8.65;;;8.00;;
16804;SDS011;8520;50.102;20.010;2022-09-27T11:45:19;9.13;;;8.45;;
16804;SDS011;8520;50.102;20.010;2022-09-27T11:48:38;7.90;;;7.40;;
16804;SDS011;8520;50.102;20.010;2022-09-27T11:51:46;8.57;;;7.97;;
16804;SDS011;8520;50.102;20.010;2022-09-27T11:55:00;7.95;;;7.25;;
16804;SDS011;8520;50.102;20.010;2022-09-27T11:57:58;8.10;;;7.53;;
16804;SDS011;8520;50.102;20.010;2022-09-27T12:01:00;7.20;;;6.75;;
16804;SDS011;8520;50.102;20.010;2022-09-27T12:04:04;7.97;;;7.20;;
16804;SDS011;8520;50.102;20.010;2022-09-27T12:07:10;7.18;;;6.78;;
16804;SDS011;8520;50.102;20.010;2022-09-27T12:10:07;6.70;;;6.20;;
16804;SDS011;8520;50.102;20.010;2022-09-27T12:13:00;7.40;;;6.90;;
16804;SDS011;8520;50.102;20.010;2022-09-27T12:15:50;8.98;;;8.35;;
16804;SDS011;8520;50.102;20.010;2022-09-27T12:18:42;7.00;;;6.50;;
16804;SDS011;8520;50.102;20.010;2022-09-27T12:22:01;9.00;;;7.00;;
16804;SDS011;8520;50.102;20.010;2022-09-27T12:24:56;6.07;;;5.70;;
16804;SDS011;8520;50.102;20.010;2022-09-27T12:27:53;6.30;;;5.90;;
16804;SDS011;8520;50.102;20.010;2022-09-27T12:30:49;6.18;;;5.60;;
16804;SDS011;8520;50.102;20.010;2022-09-27T12:34:06;5.63;;;5.22;;
16804;SDS011;8520;50.102;20.010;2022-09-27T12:37:08;5.30;;;5.00;;
16804;SDS011;8520;50.102;20.010;2022-09-27T12:40:02;4.93;;;4.50;;
16804;SDS011;8520;50.102;20.010;2022-09-27T12:42:59;4.80;;;4.40;;
16804;SDS011;8520;50.102;20.010;2022-09-27T12:46:11;5.00;;;4.50;;
16804;SDS011;8520;50.102;20.010;2022-09-27T12:49:13;4.75;;;4.35;;
16804;SDS011;8520;50.102;20.010;2022-09-27T12:52:11;5.60;;;5.10;;
16804;SDS011;8520;50.102;20.010;2022-09-27T12:55:16;4.68;;;4.43;;
16804;SDS011;8520;50.102;20.010;2022-09-27T12:58:34;4.95;;;4.63;;
16804;SDS011;8520;50.102;20.010;2022-09-27T13:01:43;5.15;;;4.70;;
16804;SDS011;8520;50.102;20.010;2022-09-27T13:04:47;6.20;;;5.70;;
16804;SDS011;8520;50.102;20.010;2022-09-27T13:07:49;5.28;;;4.93;;
16804;SDS011;8520;50.102;20.010;2022-09-27T13:10:47;4.70;;;4.30;;
16804;SDS011;8520;50.102;20.010;2022-09-27T13:13:53;4.68;;;4.43;;
16804;SDS011;8520;50.102;20.010;2022-09-27T13:16:44;4.53;;;4.32;;
16804;SDS011;8520;50.102;20.010;2022-09-27T13:19:40;3.90;;;3.70;;
16804;SDS011;8520;50.102;20.010;2022-09-27T13:22:37;4.10;;;3.90;;
16804;SDS011;8520;50.102;20.010;2022-09-27T13:25:46;4.18;;;3.80;;
16804;SDS011;8520;50.102;20.010;2022-09-27T13:29:09;4.80;;;4.40;;
16804;SDS011;8520;50.102;20.010;2022-09-27T13:32:17;4.38;;;4.18;;
16804;SDS011;8520;50.102;20.010;2022-09-27T13:35:28;4.30;;;4.00;;
16804;SDS011;8520;50.102;20.010;2022-09-27T13:38:24;4.30;;;4.00;;
16804;SDS011;8520;50.102;20.010;2022-09-27T13:41:13;4.63;;;4.22;;
16804;SDS011;8520;50.102;20.010;2022-09-27T13:44:13;4.95;;;4.65;;
16804;SDS011;8520;50.102;20.010;2022-09-27T13:47:19;3.95;;;3.75;;
16804;SDS011;8520;50.102;20.010;2022-09-27T13:50:23;4.07;;;3.88;;
16804;SDS011;8520;50.102;20.010;2022-09-27T13:53:20;4.40;;;4.13;;
16804;SDS011;8520;50.102;20.010;2022-09-27T13:59:41;4.80;;;4.40;;
16804;SDS011;8520;50.102;20.010;2022-09-27T14:02:58;4.22;;;4.03;;
16804;SDS011;8520;50.102;20.010;2022-09-27T14:05:52;4.30;;;4.10;;
16804;SDS011;8520;50.102;20.010;2022-09-27T14:08:44;4.50;;;4.30;;
16804;SDS011;8520;50.102;20.010;2022-09-27T14:11:37;4.45;;;4.25;;
16804;SDS011;8520;50.102;20.010;2022-09-27T14:14:32;5.03;;;4.53;;
16804;SDS011;8520;50.102;20.010;2022-09-27T14:17:23;4.60;;;4.30;;
16804;SDS011;8520;50.102;20.010;2022-09-27T14:23:22;6.68;;;6.18;;
16804;SDS011;8520;50.102;20.010;2022-09-27T14:26:19;5.30;;;4.80;;
16804;SDS011;8520;50.102;20.010;2022-09-27T14:29:14;5.30;;;4.90;;
16804;SDS011;8520;50.102;20.010;2022-09-27T14:32:05;5.22;;;4.93;;
16804;SDS011;8520;50.102;20.010;2022-09-27T14:35:06;4.78;;;4.47;;
16804;SDS011;8520;50.102;20.010;2022-09-27T14:38:14;4.57;;;4.18;;
16804;SDS011;8520;50.102;20.010;2022-09-27T14:41:25;4.43;;;4.13;;
16804;SDS011;8520;50.102;20.010;2022-09-27T14:44:15;5.05;;;4.75;;
16804;SDS011;8520;50.102;20.010;2022-09-27T14:47:16;5.75;;;5.25;;
16804;SDS011;8520;50.102;20.010;2022-09-27T14:50:12;5.13;;;4.57;;
16804;SDS011;8520;50.102;20.010;2022-09-27T14:53:18;5.50;;;5.00;;
16804;SDS011;8520;50.102;20.010;2022-09-27T14:56:09;5.43;;;4.93;;
16804;SDS011;8520;50.102;20.010;2022-09-27T14:59:06;7.90;;;5.22;;
16804;SDS011;8520;50.102;20.010;2022-09-27T15:02:01;5.40;;;5.00;;
16804;SDS011;8520;50.102;20.010;2022-09-27T15:04:58;6.65;;;6.15;;
16804;SDS011;8520;50.102;20.010;2022-09-27T15:07:46;6.07;;;5.68;;
16804;SDS011;8520;50.102;20.010;2022-09-27T15:10:35;6.07;;;5.68;;
16804;SDS011;8520;50.102;20.010;2022-09-27T15:13:24;6.28;;;5.80;;
16804;SDS011;8520;50.102;20.010;2022-09-27T15:16:16;5.90;;;5.47;;
16804;SDS011;8520;50.102;20.010;2022-09-27T15:19:12;5.57;;;5.28;;
16804;SDS011;8520;50.102;20.010;2022-09-27T15:22:28;5.93;;;5.53;;
16804;SDS011;8520;50.102;20.010;2022-09-27T15:25:22;5.70;;;5.30;;
16804;SDS011;8520;50.102;20.010;2022-09-27T15:28:18;6.15;;;5.75;;
16804;SDS011;8520;50.102;20.010;2022-09-27T15:31:06;6.07;;;5.57;;
16804;SDS011;8520;50.102;20.010;2022-09-27T15:33:55;6.07;;;5.68;;
16804;SDS011;8520;50.102;20.010;2022-09-27T15:36:52;5.03;;;4.82;;
16804;SDS011;8520;50.102;20.010;2022-09-27T15:39:44;5.97;;;5.68;;
16804;SDS011;8520;50.102;20.010;2022-09-27T15:42:38;7.85;;;7.28;;
16804;SDS011;8520;50.102;20.010;2022-09-27T15:45:42;10.77;;;10.18;;
16804;SDS011;8520;50.102;20.010;2022-09-27T15:48:36;14.03;;;13.27;;
16804;SDS011;8520;50.102;20.010;2022-09-27T15:51:37;16.93;;;16.17;;
16804;SDS011;8520;50.102;20.010;2022-09-27T15:54:27;19.63;;;18.83;;
16804;SDS011;8520;50.102;20.010;2022-09-27T15:57:20;20.87;;;19.93;;
16804;SDS011;8520;50.102;20.010;2022-09-27T16:00:09;20.70;;;19.90;;
16804;SDS011;8520;50.102;20.010;2022-09-27T16:03:02;23.53;;;22.63;;
16804;SDS011;8520;50.102;20.010;2022-09-27T16:05:51;26.60;;;25.50;;
16804;SDS011;8520;50.102;20.010;2022-09-27T16:08:41;29.70;;;28.40;;
16804;SDS011;8520;50.102;20.010;2022-09-27T16:11:31;32.33;;;31.03;;
16804;SDS011;8520;50.102;20.010;2022-09-27T16:14:20;33.50;;;32.10;;
16804;SDS011;8520;50.102;20.010;2022-09-27T16:17:09;33.63;;;32.23;;
16804;SDS011;8520;50.102;20.010;2022-09-27T16:19:57;32.43;;;31.03;;
16804;SDS011;8520;50.102;20.010;2022-09-27T16:22:46;32.03;;;30.83;;
16804;SDS011;8520;50.102;20.010;2022-09-27T16:25:34;32.50;;;31.20;;
16804;SDS011;8520;50.102;20.010;2022-09-27T16:28:23;33.77;;;32.37;;
16804;SDS011;8520;50.102;20.010;2022-09-27T16:31:12;34.50;;;33.20;;
16804;SDS011;8520;50.102;20.010;2022-09-27T16:34:04;34.70;;;33.17;;
16804;SDS011;8520;50.102;20.010;2022-09-27T16:36:52;33.57;;;32.27;;
16804;SDS011;8520;50.102;20.010;2022-09-27T16:39:41;34.30;;;33.00;;
16804;SDS011;8520;50.102;20.010;2022-09-27T16:42:29;34.67;;;33.27;;
16804;SDS011;8520;50.102;20.010;2022-09-27T16:45:17;34.30;;;33.00;;
16804;SDS011;8520;50.102;20.010;2022-09-27T16:48:07;34.17;;;32.80;;
16804;SDS011;8520;50.102;20.010;2022-09-27T16:50:55;34.90;;;33.50;;
16804;SDS011;8520;50.102;20.010;2022-09-27T16:54:08;36.07;;;34.37;;
16804;SDS011;8520;50.102;20.010;2022-09-27T16:56:57;37.07;;;35.47;;
16804;SDS011;8520;50.102;20.010;2022-09-27T16:59:46;37.13;;;35.63;;
16804;SDS011;8520;50.102;20.010;2022-09-27T17:02:34;38.07;;;36.47;;
16804;SDS011;8520;50.102;20.010;2022-09-27T17:05:24;38.00;;;36.40;;
16804;SDS011;8520;50.102;20.010;2022-09-27T17:08:13;37.80;;;36.30;;
16804;SDS011;8520;50.102;20.010;2022-09-27T17:11:01;38.37;;;36.80;;
16804;SDS011;8520;50.102;20.010;2022-09-27T17:13:52;39.93;;;38.13;;
16804;SDS011;8520;50.102;20.010;2022-09-27T17:16:42;39.93;;;38.23;;
16804;SDS011;8520;50.102;20.010;2022-09-27T17:19:31;40.90;;;39.10;;
16804;SDS011;8520;50.102;20.010;2022-09-27T17:22:21;42.60;;;40.60;;
16804;SDS011;8520;50.102;20.010;2022-09-27T17:25:09;43.67;;;41.67;;
16804;SDS011;8520;50.102;20.010;2022-09-27T17:27:58;47.07;;;44.77;;
16804;SDS011;8520;50.102;20.010;2022-09-27T17:30:46;46.57;;;44.37;;
16804;SDS011;8520;50.102;20.010;2022-09-27T17:33:35;46.87;;;44.57;;